sensor_id;sensor_type;location;lat;lon;timestamp;P1;durP1;ratioP1;P2;durP2;ratioP2
173;SDS011;75;48.784;9.364;2023-06-22T00:01:49;17.87;;;12.33;;
173;SDS011;75;48.784;9.364;2023-06-22T00:04:15;17.10;;;12.27;;
173;SDS011;75;48.784;9.364;2023-06-22T00:06:41;16.30;;;11.73;;
173;SDS011;75;48.784;9.364;2023-06-22T00:09:07;15.20;;;11.43;;
173;SDS011;75;48.784;9.364;2023-06-22T00:11:35;17.90;;;12.57;;
173;SDS011;75;48.784;9.364;2023-06-22T00:14:01;15.10;;;11.10;;
173;SDS011;75;48.784;9.364;2023-06-22T00:16:27;15.73;;;11.60;;
173;SDS011;75;48.784;9.364;2023-06-22T00:18:53;16.20;;;12.27;;
173;SDS011;75;48.784;9.364;2023-06-22T00:21:19;18.83;;;11.93;;
173;SDS011;75;48.784;9.364;2023-06-22T00:23:45;17.77;;;11.53;;
173;SDS011;75;48.784;9.364;2023-06-22T00:26:12;12.70;;;9.57;;
173;SDS011;75;48.784;9.364;2023-06-22T00:28:39;17.30;;;12.23;;
173;SDS011;75;48.784;9.364;2023-06-22T00:31:05;19.17;;;12.03;;
173;SDS011;75;48.784;9.364;2023-06-22T00:33:31;17.73;;;12.60;;
173;SDS011;75;48.784;9.364;2023-06-22T00:35:57;19.60;;;12.57;;
173;SDS011;75;48.784;9.364;2023-06-22T00:38:23;20.00;;;12.57;;
173;SDS011;75;48.784;9.364;2023-06-22T00:40:49;17.20;;;12.23;;
173;SDS011;75;48.784;9.364;2023-06-22T00:43:15;19.20;;;11.90;;
173;SDS011;75;48.784;9.364;2023-06-22T00:45:41;16.27;;;12.10;;
173;SDS011;75;48.784;9.364;2023-06-22T00:48:07;17.70;;;11.90;;
173;SDS011;75;48.784;9.364;2023-06-22T00:50:33;20.20;;;11.70;;
173;SDS011;75;48.784;9.364;2023-06-22T00:53:00;18.77;;;12.53;;
173;SDS011;75;48.784;9.364;2023-06-22T00:55:33;17.50;;;12.93;;
173;SDS011;75;48.784;9.364;2023-06-22T00:58:00;18.73;;;13.20;;
173;SDS011;75;48.784;9.364;2023-06-22T01:00:27;16.80;;;12.57;;
173;SDS011;75;48.784;9.364;2023-06-22T01:02:53;16.60;;;12.70;;
173;SDS011;75;48.784;9.364;2023-06-22T01:05:20;18.50;;;12.17;;
173;SDS011;75;48.784;9.364;2023-06-22T01:10:31;20.13;;;12.57;;
173;SDS011;75;48.784;9.364;2023-06-22T01:15:50;20.47;;;13.07;;
173;SDS011;75;48.784;9.364;2023-06-22T01:18:18;18.90;;;12.60;;
173;SDS011;75;48.784;9.364;2023-06-22T01:20:44;20.63;;;13.33;;
173;SDS011;75;48.784;9.364;2023-06-22T01:23:23;16.90;;;12.83;;
173;SDS011;75;48.784;9.364;2023-06-22T01:31:09;21.07;;;14.00;;
173;SDS011;75;48.784;9.364;2023-06-22T01:33:37;20.70;;;13.53;;
173;SDS011;75;48.784;9.364;2023-06-22T01:36:03;20.33;;;12.67;;
173;SDS011;75;48.784;9.364;2023-06-22T01:38:30;20.47;;;13.50;;
173;SDS011;75;48.784;9.364;2023-06-22T01:40:59;19.10;;;14.30;;
173;SDS011;75;48.784;9.364;2023-06-22T01:43:26;19.90;;;14.90;;
173;SDS011;75;48.784;9.364;2023-06-22T01:45:52;21.03;;;15.60;;
173;SDS011;75;48.784;9.364;2023-06-22T01:48:19;20.30;;;14.10;;
173;SDS011;75;48.784;9.364;2023-06-22T01:50:45;19.83;;;13.90;;
173;SDS011;75;48.784;9.364;2023-06-22T01:53:11;20.10;;;14.70;;
173;SDS011;75;48.784;9.364;2023-06-22T01:55:37;23.07;;;15.20;;
173;SDS011;75;48.784;9.364;2023-06-22T01:58:03;17.37;;;14.13;;
173;SDS011;75;48.784;9.364;2023-06-22T02:00:31;20.23;;;14.37;;
173;SDS011;75;48.784;9.364;2023-06-22T02:03:01;19.40;;;14.90;;
173;SDS011;75;48.784;9.364;2023-06-22T02:05:30;23.80;;;15.10;;
173;SDS011;75;48.784;9.364;2023-06-22T02:08:02;19.70;;;14.53;;
173;SDS011;75;48.784;9.364;2023-06-22T02:10:30;20.40;;;14.70;;
173;SDS011;75;48.784;9.364;2023-06-22T02:12:57;21.17;;;14.13;;
173;SDS011;75;48.784;9.364;2023-06-22T02:15:23;22.10;;;15.80;;
173;SDS011;75;48.784;9.364;2023-06-22T02:17:49;21.20;;;14.20;;
173;SDS011;75;48.784;9.364;2023-06-22T02:20:15;22.10;;;14.47;;
173;SDS011;75;48.784;9.364;2023-06-22T02:22:41;21.10;;;13.77;;
173;SDS011;75;48.784;9.364;2023-06-22T02:25:07;21.33;;;14.60;;
173;SDS011;75;48.784;9.364;2023-06-22T02:27:33;22.10;;;15.63;;
173;SDS011;75;48.784;9.364;2023-06-22T02:29:59;20.83;;;15.30;;
173;SDS011;75;48.784;9.364;2023-06-22T02:32:25;19.93;;;13.50;;
173;SDS011;75;48.784;9.364;2023-06-22T02:34:52;20.20;;;14.30;;
173;SDS011;75;48.784;9.364;2023-06-22T02:37:18;21.47;;;15.30;;
173;SDS011;75;48.784;9.364;2023-06-22T02:39:44;27.17;;;16.50;;
173;SDS011;75;48.784;9.364;2023-06-22T02:42:09;24.67;;;15.30;;
173;SDS011;75;48.784;9.364;2023-06-22T02:44:36;19.97;;;14.07;;
173;SDS011;75;48.784;9.364;2023-06-22T02:47:02;24.00;;;15.17;;
173;SDS011;75;48.784;9.364;2023-06-22T02:49:28;19.73;;;14.73;;
173;SDS011;75;48.784;9.364;2023-06-22T02:51:54;21.63;;;16.00;;
173;SDS011;75;48.784;9.364;2023-06-22T02:54:20;22.00;;;15.57;;
173;SDS011;75;48.784;9.364;2023-06-22T02:56:46;20.60;;;15.80;;
173;SDS011;75;48.784;9.364;2023-06-22T02:59:13;22.83;;;15.83;;
173;SDS011;75;48.784;9.364;2023-06-22T03:01:39;20.30;;;15.50;;
173;SDS011;75;48.784;9.364;2023-06-22T03:04:08;22.43;;;15.90;;
173;SDS011;75;48.784;9.364;2023-06-22T03:06:34;22.77;;;16.37;;
173;SDS011;75;48.784;9.364;2023-06-22T03:09:01;23.53;;;16.40;;
173;SDS011;75;48.784;9.364;2023-06-22T03:11:28;21.53;;;16.17;;
173;SDS011;75;48.784;9.364;2023-06-22T03:13:54;21.67;;;16.10;;
173;SDS011;75;48.784;9.364;2023-06-22T03:16:20;22.03;;;16.10;;
173;SDS011;75;48.784;9.364;2023-06-22T03:18:46;23.03;;;16.57;;
173;SDS011;75;48.784;9.364;2023-06-22T03:21:12;21.17;;;15.90;;
173;SDS011;75;48.784;9.364;2023-06-22T03:23:40;22.17;;;16.33;;
173;SDS011;75;48.784;9.364;2023-06-22T03:26:06;21.80;;;16.70;;
173;SDS011;75;48.784;9.364;2023-06-22T03:28:32;24.60;;;18.20;;
173;SDS011;75;48.784;9.364;2023-06-22T03:30:57;21.93;;;16.87;;
173;SDS011;75;48.784;9.364;2023-06-22T03:33:23;26.20;;;17.87;;
173;SDS011;75;48.784;9.364;2023-06-22T03:35:49;26.10;;;16.83;;
173;SDS011;75;48.784;9.364;2023-06-22T03:38:18;24.90;;;17.37;;
173;SDS011;75;48.784;9.364;2023-06-22T03:40:44;25.23;;;17.53;;
173;SDS011;75;48.784;9.364;2023-06-22T03:43:10;23.80;;;16.57;;
173;SDS011;75;48.784;9.364;2023-06-22T03:45:36;22.07;;;16.10;;
173;SDS011;75;48.784;9.364;2023-06-22T03:48:02;22.60;;;15.87;;
173;SDS011;75;48.784;9.364;2023-06-22T03:50:28;24.27;;;15.60;;
173;SDS011;75;48.784;9.364;2023-06-22T03:52:54;21.93;;;16.43;;
173;SDS011;75;48.784;9.364;2023-06-22T03:55:20;21.30;;;15.90;;
173;SDS011;75;48.784;9.364;2023-06-22T03:57:46;20.50;;;15.70;;
173;SDS011;75;48.784;9.364;2023-06-22T04:00:12;22.17;;;16.50;;
173;SDS011;75;48.784;9.364;2023-06-22T04:02:40;21.00;;;15.03;;
173;SDS011;75;48.784;9.364;2023-06-22T04:05:07;18.80;;;14.30;;
173;SDS011;75;48.784;9.364;2023-06-22T04:07:33;25.50;;;15.70;;
173;SDS011;75;48.784;9.364;2023-06-22T04:09:59;20.13;;;14.60;;
173;SDS011;75;48.784;9.364;2023-06-22T04:12:25;20.47;;;14.70;;
173;SDS011;75;48.784;9.364;2023-06-22T04:14:51;24.27;;;13.63;;
173;SDS011;75;48.784;9.364;2023-06-22T04:17:17;18.73;;;14.40;;
173;SDS011;75;48.784;9.364;2023-06-22T04:19:44;17.93;;;13.13;;
173;SDS011;75;48.784;9.364;2023-06-22T04:22:10;18.70;;;13.30;;
173;SDS011;75;48.784;9.364;2023-06-22T04:24:36;22.03;;;12.80;;
173;SDS011;75;48.784;9.364;2023-06-22T04:27:03;21.67;;;13.37;;
173;SDS011;75;48.784;9.364;2023-06-22T04:29:29;21.47;;;12.60;;
173;SDS011;75;48.784;9.364;2023-06-22T04:31:56;20.37;;;13.07;;
173;SDS011;75;48.784;9.364;2023-06-22T04:34:28;18.50;;;12.50;;
173;SDS011;75;48.784;9.364;2023-06-22T04:36:54;16.50;;;11.43;;
173;SDS011;75;48.784;9.364;2023-06-22T04:39:21;16.77;;;11.90;;
173;SDS011;75;48.784;9.364;2023-06-22T04:41:47;17.30;;;11.50;;
173;SDS011;75;48.784;9.364;2023-06-22T04:44:14;17.10;;;11.40;;
173;SDS011;75;48.784;9.364;2023-06-22T04:46:48;15.13;;;10.27;;
173;SDS011;75;48.784;9.364;2023-06-22T04:49:18;13.80;;;10.10;;
173;SDS011;75;48.784;9.364;2023-06-22T04:51:45;14.10;;;10.30;;
173;SDS011;75;48.784;9.364;2023-06-22T04:54:11;15.67;;;10.87;;
173;SDS011;75;48.784;9.364;2023-06-22T04:56:37;14.10;;;10.07;;
173;SDS011;75;48.784;9.364;2023-06-22T04:59:06;16.00;;;10.67;;
173;SDS011;75;48.784;9.364;2023-06-22T05:01:32;15.40;;;11.13;;
173;SDS011;75;48.784;9.364;2023-06-22T05:03:59;18.30;;;10.97;;
173;SDS011;75;48.784;9.364;2023-06-22T05:06:27;13.33;;;10.03;;
173;SDS011;75;48.784;9.364;2023-06-22T05:08:53;14.80;;;11.07;;
173;SDS011;75;48.784;9.364;2023-06-22T05:11:26;15.40;;;10.03;;
173;SDS011;75;48.784;9.364;2023-06-22T05:13:52;16.63;;;11.17;;
173;SDS011;75;48.784;9.364;2023-06-22T05:16:18;15.67;;;10.30;;
173;SDS011;75;48.784;9.364;2023-06-22T05:18:48;16.07;;;11.20;;
173;SDS011;75;48.784;9.364;2023-06-22T05:21:14;15.30;;;10.83;;
173;SDS011;75;48.784;9.364;2023-06-22T05:23:40;16.10;;;10.90;;
173;SDS011;75;48.784;9.364;2023-06-22T05:26:06;13.60;;;10.13;;
173;SDS011;75;48.784;9.364;2023-06-22T05:28:34;15.00;;;10.20;;
173;SDS011;75;48.784;9.364;2023-06-22T05:31:00;16.33;;;10.40;;
173;SDS011;75;48.784;9.364;2023-06-22T05:33:26;14.30;;;10.63;;
173;SDS011;75;48.784;9.364;2023-06-22T05:35:52;19.57;;;10.47;;
173;SDS011;75;48.784;9.364;2023-06-22T05:38:18;16.23;;;10.23;;
173;SDS011;75;48.784;9.364;2023-06-22T05:40:44;18.97;;;10.50;;
173;SDS011;75;48.784;9.364;2023-06-22T05:43:10;15.37;;;10.70;;
173;SDS011;75;48.784;9.364;2023-06-22T05:45:36;15.63;;;10.77;;
173;SDS011;75;48.784;9.364;2023-06-22T05:48:01;13.23;;;9.80;;
173;SDS011;75;48.784;9.364;2023-06-22T05:50:27;13.20;;;10.30;;
173;SDS011;75;48.784;9.364;2023-06-22T05:52:53;13.97;;;10.50;;
173;SDS011;75;48.784;9.364;2023-06-22T05:55:19;14.07;;;10.37;;
173;SDS011;75;48.784;9.364;2023-06-22T05:57:45;15.27;;;10.63;;
173;SDS011;75;48.784;9.364;2023-06-22T06:00:11;13.00;;;9.10;;
173;SDS011;75;48.784;9.364;2023-06-22T06:02:38;14.37;;;10.43;;
173;SDS011;75;48.784;9.364;2023-06-22T06:05:11;19.27;;;10.10;;
173;SDS011;75;48.784;9.364;2023-06-22T06:07:41;12.93;;;9.00;;
173;SDS011;75;48.784;9.364;2023-06-22T06:10:07;14.50;;;10.60;;
173;SDS011;75;48.784;9.364;2023-06-22T06:12:33;13.10;;;8.97;;
173;SDS011;75;48.784;9.364;2023-06-22T06:14:59;17.43;;;9.40;;
173;SDS011;75;48.784;9.364;2023-06-22T06:17:25;13.60;;;9.40;;
173;SDS011;75;48.784;9.364;2023-06-22T06:19:51;16.00;;;10.40;;
173;SDS011;75;48.784;9.364;2023-06-22T06:22:17;12.63;;;9.37;;
173;SDS011;75;48.784;9.364;2023-06-22T06:24:45;15.90;;;9.77;;
173;SDS011;75;48.784;9.364;2023-06-22T06:27:12;17.33;;;9.63;;
173;SDS011;75;48.784;9.364;2023-06-22T06:29:38;21.70;;;9.60;;
173;SDS011;75;48.784;9.364;2023-06-22T06:32:04;13.00;;;9.67;;
173;SDS011;75;48.784;9.364;2023-06-22T06:34:30;17.73;;;9.40;;
173;SDS011;75;48.784;9.364;2023-06-22T06:36:56;16.60;;;9.27;;
173;SDS011;75;48.784;9.364;2023-06-22T06:39:22;13.57;;;9.00;;
173;SDS011;75;48.784;9.364;2023-06-22T06:41:48;15.10;;;9.40;;
173;SDS011;75;48.784;9.364;2023-06-22T06:44:14;17.90;;;9.17;;
173;SDS011;75;48.784;9.364;2023-06-22T06:46:40;13.97;;;9.50;;
173;SDS011;75;48.784;9.364;2023-06-22T06:49:07;15.23;;;9.20;;
173;SDS011;75;48.784;9.364;2023-06-22T06:51:33;13.87;;;8.90;;
173;SDS011;75;48.784;9.364;2023-06-22T06:53:59;14.50;;;8.80;;
173;SDS011;75;48.784;9.364;2023-06-22T06:56:25;14.03;;;8.80;;
173;SDS011;75;48.784;9.364;2023-06-22T06:58:51;18.90;;;9.40;;
173;SDS011;75;48.784;9.364;2023-06-22T07:01:17;13.10;;;9.53;;
173;SDS011;75;48.784;9.364;2023-06-22T07:03:44;12.13;;;9.20;;
173;SDS011;75;48.784;9.364;2023-06-22T07:06:10;13.70;;;9.30;;
173;SDS011;75;48.784;9.364;2023-06-22T07:08:36;20.50;;;9.60;;
173;SDS011;75;48.784;9.364;2023-06-22T07:11:04;13.97;;;8.73;;
173;SDS011;75;48.784;9.364;2023-06-22T07:13:30;12.73;;;8.60;;
173;SDS011;75;48.784;9.364;2023-06-22T07:15:56;12.60;;;8.80;;
173;SDS011;75;48.784;9.364;2023-06-22T07:18:23;15.53;;;8.73;;
173;SDS011;75;48.784;9.364;2023-06-22T07:20:49;11.67;;;8.87;;
173;SDS011;75;48.784;9.364;2023-06-22T07:23:15;12.13;;;8.80;;
173;SDS011;75;48.784;9.364;2023-06-22T07:25:41;14.83;;;8.17;;
173;SDS011;75;48.784;9.364;2023-06-22T07:28:07;13.57;;;8.70;;
173;SDS011;75;48.784;9.364;2023-06-22T07:30:33;14.40;;;8.90;;
173;SDS011;75;48.784;9.364;2023-06-22T07:32:59;14.43;;;9.07;;
173;SDS011;75;48.784;9.364;2023-06-22T07:35:32;13.90;;;8.70;;
173;SDS011;75;48.784;9.364;2023-06-22T07:37:58;12.77;;;8.30;;
173;SDS011;75;48.784;9.364;2023-06-22T07:40:24;11.80;;;8.30;;
173;SDS011;75;48.784;9.364;2023-06-22T07:42:50;13.37;;;7.90;;
173;SDS011;75;48.784;9.364;2023-06-22T07:45:19;13.80;;;8.57;;
173;SDS011;75;48.784;9.364;2023-06-22T07:47:45;13.87;;;8.40;;
173;SDS011;75;48.784;9.364;2023-06-22T07:50:11;11.27;;;7.73;;
173;SDS011;75;48.784;9.364;2023-06-22T07:52:37;20.07;;;7.77;;
173;SDS011;75;48.784;9.364;2023-06-22T07:55:03;13.93;;;6.90;;
173;SDS011;75;48.784;9.364;2023-06-22T07:57:30;17.23;;;6.70;;
173;SDS011;75;48.784;9.364;2023-06-22T08:00:03;11.90;;;7.00;;
173;SDS011;75;48.784;9.364;2023-06-22T08:02:36;11.50;;;6.90;;
173;SDS011;75;48.784;9.364;2023-06-22T08:05:02;16.37;;;6.70;;
173;SDS011;75;48.784;9.364;2023-06-22T08:07:29;14.87;;;6.70;;
173;SDS011;75;48.784;9.364;2023-06-22T08:09:58;10.50;;;5.70;;
173;SDS011;75;48.784;9.364;2023-06-22T08:12:24;13.57;;;6.03;;
173;SDS011;75;48.784;9.364;2023-06-22T08:14:50;15.03;;;6.20;;
173;SDS011;75;48.784;9.364;2023-06-22T08:17:16;18.90;;;7.20;;
173;SDS011;75;48.784;9.364;2023-06-22T08:19:42;11.20;;;5.53;;
173;SDS011;75;48.784;9.364;2023-06-22T08:22:08;17.27;;;6.00;;
173;SDS011;75;48.784;9.364;2023-06-22T08:24:33;18.73;;;6.83;;
173;SDS011;75;48.784;9.364;2023-06-22T08:26:59;13.90;;;6.17;;
173;SDS011;75;48.784;9.364;2023-06-22T08:29:25;11.50;;;6.57;;
173;SDS011;75;48.784;9.364;2023-06-22T08:31:51;14.43;;;5.80;;
173;SDS011;75;48.784;9.364;2023-06-22T08:34:17;12.27;;;6.27;;
173;SDS011;75;48.784;9.364;2023-06-22T08:36:46;16.17;;;6.40;;
173;SDS011;75;48.784;9.364;2023-06-22T08:39:16;15.40;;;6.27;;
173;SDS011;75;48.784;9.364;2023-06-22T08:41:42;10.97;;;6.00;;
173;SDS011;75;48.784;9.364;2023-06-22T08:44:08;12.73;;;6.50;;
173;SDS011;75;48.784;9.364;2023-06-22T08:46:34;18.17;;;6.40;;
173;SDS011;75;48.784;9.364;2023-06-22T08:49:00;15.10;;;6.90;;
173;SDS011;75;48.784;9.364;2023-06-22T08:51:26;16.37;;;7.00;;
173;SDS011;75;48.784;9.364;2023-06-22T08:53:52;15.33;;;7.70;;
173;SDS011;75;48.784;9.364;2023-06-22T08:56:18;15.33;;;7.10;;
173;SDS011;75;48.784;9.364;2023-06-22T08:58:44;13.33;;;7.10;;
173;SDS011;75;48.784;9.364;2023-06-22T09:01:10;16.00;;;6.43;;
173;SDS011;75;48.784;9.364;2023-06-22T09:03:36;11.63;;;6.80;;
173;SDS011;75;48.784;9.364;2023-06-22T09:06:02;12.80;;;6.87;;
173;SDS011;75;48.784;9.364;2023-06-22T09:08:28;12.17;;;5.97;;
173;SDS011;75;48.784;9.364;2023-06-22T09:10:54;13.93;;;6.53;;
173;SDS011;75;48.784;9.364;2023-06-22T09:13:20;21.23;;;6.67;;
173;SDS011;75;48.784;9.364;2023-06-22T09:15:47;14.20;;;6.67;;
173;SDS011;75;48.784;9.364;2023-06-22T09:18:13;13.50;;;6.37;;
173;SDS011;75;48.784;9.364;2023-06-22T09:20:39;12.90;;;6.67;;
173;SDS011;75;48.784;9.364;2023-06-22T09:23:05;16.30;;;6.90;;
173;SDS011;75;48.784;9.364;2023-06-22T09:25:31;18.90;;;6.80;;
173;SDS011;75;48.784;9.364;2023-06-22T09:27:57;13.43;;;6.77;;
173;SDS011;75;48.784;9.364;2023-06-22T09:30:23;18.03;;;7.23;;
173;SDS011;75;48.784;9.364;2023-06-22T09:32:49;14.20;;;6.57;;
173;SDS011;75;48.784;9.364;2023-06-22T09:35:15;19.03;;;7.10;;
173;SDS011;75;48.784;9.364;2023-06-22T09:37:41;20.50;;;7.30;;
173;SDS011;75;48.784;9.364;2023-06-22T09:40:07;10.60;;;6.37;;
173;SDS011;75;48.784;9.364;2023-06-22T09:42:35;11.20;;;7.03;;
173;SDS011;75;48.784;9.364;2023-06-22T09:45:01;20.23;;;8.07;;
173;SDS011;75;48.784;9.364;2023-06-22T09:47:28;19.03;;;8.10;;
173;SDS011;75;48.784;9.364;2023-06-22T09:49:54;13.57;;;7.20;;
173;SDS011;75;48.784;9.364;2023-06-22T09:52:20;16.13;;;7.70;;
173;SDS011;75;48.784;9.364;2023-06-22T09:54:46;15.20;;;8.03;;
173;SDS011;75;48.784;9.364;2023-06-22T09:57:12;16.33;;;7.50;;
173;SDS011;75;48.784;9.364;2023-06-22T09:59:38;19.80;;;7.93;;
173;SDS011;75;48.784;9.364;2023-06-22T10:02:08;12.57;;;7.73;;
173;SDS011;75;48.784;9.364;2023-06-22T10:04:34;16.57;;;8.13;;
173;SDS011;75;48.784;9.364;2023-06-22T10:07:00;15.10;;;7.63;;
173;SDS011;75;48.784;9.364;2023-06-22T10:09:26;13.93;;;7.57;;
173;SDS011;75;48.784;9.364;2023-06-22T10:11:52;18.13;;;7.83;;
173;SDS011;75;48.784;9.364;2023-06-22T10:14:18;20.27;;;7.87;;
173;SDS011;75;48.784;9.364;2023-06-22T10:16:44;15.10;;;7.87;;
173;SDS011;75;48.784;9.364;2023-06-22T10:19:10;14.83;;;7.60;;
173;SDS011;75;48.784;9.364;2023-06-22T10:21:36;18.00;;;7.73;;
173;SDS011;75;48.784;9.364;2023-06-22T10:24:03;14.53;;;8.03;;
173;SDS011;75;48.784;9.364;2023-06-22T10:26:34;13.30;;;7.70;;
173;SDS011;75;48.784;9.364;2023-06-22T10:29:00;10.80;;;7.10;;
173;SDS011;75;48.784;9.364;2023-06-22T10:31:26;15.50;;;7.80;;
173;SDS011;75;48.784;9.364;2023-06-22T10:33:53;18.80;;;7.70;;
173;SDS011;75;48.784;9.364;2023-06-22T10:36:19;16.10;;;7.93;;
173;SDS011;75;48.784;9.364;2023-06-22T10:38:45;12.17;;;6.90;;
173;SDS011;75;48.784;9.364;2023-06-22T10:41:12;16.60;;;7.37;;
173;SDS011;75;48.784;9.364;2023-06-22T10:43:38;14.17;;;7.40;;
173;SDS011;75;48.784;9.364;2023-06-22T10:46:04;14.90;;;8.03;;
173;SDS011;75;48.784;9.364;2023-06-22T10:48:30;14.90;;;7.40;;
173;SDS011;75;48.784;9.364;2023-06-22T10:50:56;19.27;;;8.10;;
173;SDS011;75;48.784;9.364;2023-06-22T10:53:21;15.03;;;7.50;;
173;SDS011;75;48.784;9.364;2023-06-22T10:55:47;14.90;;;7.20;;
173;SDS011;75;48.784;9.364;2023-06-22T10:58:14;11.97;;;7.37;;
173;SDS011;75;48.784;9.364;2023-06-22T11:00:40;8.93;;;6.30;;
173;SDS011;75;48.784;9.364;2023-06-22T11:03:05;12.27;;;7.00;;
173;SDS011;75;48.784;9.364;2023-06-22T11:05:32;15.57;;;7.47;;
173;SDS011;75;48.784;9.364;2023-06-22T11:07:58;14.60;;;6.93;;
173;SDS011;75;48.784;9.364;2023-06-22T11:10:24;15.13;;;7.73;;
173;SDS011;75;48.784;9.364;2023-06-22T11:12:51;17.53;;;7.93;;
173;SDS011;75;48.784;9.364;2023-06-22T11:15:18;12.90;;;7.10;;
173;SDS011;75;48.784;9.364;2023-06-22T11:17:44;22.20;;;8.10;;
173;SDS011;75;48.784;9.364;2023-06-22T11:20:10;18.97;;;7.93;;
173;SDS011;75;48.784;9.364;2023-06-22T11:22:37;20.80;;;8.17;;
173;SDS011;75;48.784;9.364;2023-06-22T11:25:04;14.03;;;7.50;;
173;SDS011;75;48.784;9.364;2023-06-22T11:27:30;14.00;;;7.37;;
173;SDS011;75;48.784;9.364;2023-06-22T11:29:56;12.80;;;7.70;;
173;SDS011;75;48.784;9.364;2023-06-22T11:32:22;14.93;;;8.17;;
173;SDS011;75;48.784;9.364;2023-06-22T11:34:48;19.17;;;8.17;;
173;SDS011;75;48.784;9.364;2023-06-22T11:37:14;18.10;;;7.13;;
173;SDS011;75;48.784;9.364;2023-06-22T11:39:40;16.27;;;7.70;;
173;SDS011;75;48.784;9.364;2023-06-22T11:42:07;23.03;;;7.60;;
173;SDS011;75;48.784;9.364;2023-06-22T11:44:33;21.53;;;8.10;;
173;SDS011;75;48.784;9.364;2023-06-22T11:46:59;18.97;;;8.07;;
173;SDS011;75;48.784;9.364;2023-06-22T11:49:26;20.57;;;8.60;;
173;SDS011;75;48.784;9.364;2023-06-22T11:51:52;19.00;;;7.83;;
173;SDS011;75;48.784;9.364;2023-06-22T11:54:18;16.03;;;7.80;;
173;SDS011;75;48.784;9.364;2023-06-22T11:56:44;15.80;;;7.60;;
173;SDS011;75;48.784;9.364;2023-06-22T11:59:10;15.27;;;8.30;;
173;SDS011;75;48.784;9.364;2023-06-22T12:01:36;15.10;;;8.07;;
173;SDS011;75;48.784;9.364;2023-06-22T12:04:02;16.53;;;7.17;;
173;SDS011;75;48.784;9.364;2023-06-22T12:06:30;19.73;;;7.83;;
173;SDS011;75;48.784;9.364;2023-06-22T12:08:57;16.30;;;8.23;;
173;SDS011;75;48.784;9.364;2023-06-22T12:11:23;17.57;;;8.10;;
173;SDS011;75;48.784;9.364;2023-06-22T12:13:48;14.63;;;7.77;;
173;SDS011;75;48.784;9.364;2023-06-22T12:16:14;19.97;;;8.30;;
173;SDS011;75;48.784;9.364;2023-06-22T12:18:41;17.20;;;8.40;;
173;SDS011;75;48.784;9.364;2023-06-22T12:21:07;15.57;;;7.87;;
173;SDS011;75;48.784;9.364;2023-06-22T12:23:33;15.63;;;8.40;;
173;SDS011;75;48.784;9.364;2023-06-22T12:25:59;17.73;;;8.70;;
173;SDS011;75;48.784;9.364;2023-06-22T12:28:26;16.47;;;8.47;;
173;SDS011;75;48.784;9.364;2023-06-22T12:30:52;13.60;;;7.60;;
173;SDS011;75;48.784;9.364;2023-06-22T12:33:18;15.57;;;8.30;;
173;SDS011;75;48.784;9.364;2023-06-22T12:35:45;21.33;;;8.87;;
173;SDS011;75;48.784;9.364;2023-06-22T12:38:13;19.27;;;8.30;;
173;SDS011;75;48.784;9.364;2023-06-22T12:40:39;18.00;;;8.90;;
173;SDS011;75;48.784;9.364;2023-06-22T12:43:05;20.73;;;8.77;;
173;SDS011;75;48.784;9.364;2023-06-22T12:45:32;22.63;;;8.67;;
173;SDS011;75;48.784;9.364;2023-06-22T12:47:59;19.93;;;9.00;;
173;SDS011;75;48.784;9.364;2023-06-22T12:50:25;19.80;;;7.90;;
173;SDS011;75;48.784;9.364;2023-06-22T12:52:51;16.93;;;8.20;;
173;SDS011;75;48.784;9.364;2023-06-22T12:55:17;14.93;;;8.33;;
173;SDS011;75;48.784;9.364;2023-06-22T12:57:43;15.53;;;8.47;;
173;SDS011;75;48.784;9.364;2023-06-22T13:00:09;17.60;;;8.50;;
173;SDS011;75;48.784;9.364;2023-06-22T13:02:36;15.27;;;8.50;;
173;SDS011;75;48.784;9.364;2023-06-22T13:05:02;19.37;;;8.40;;
173;SDS011;75;48.784;9.364;2023-06-22T13:07:30;16.47;;;8.43;;
173;SDS011;75;48.784;9.364;2023-06-22T13:09:56;17.83;;;8.63;;
173;SDS011;75;48.784;9.364;2023-06-22T13:12:22;18.97;;;8.67;;
173;SDS011;75;48.784;9.364;2023-06-22T13:14:48;15.00;;;8.10;;
173;SDS011;75;48.784;9.364;2023-06-22T13:17:14;18.00;;;8.60;;
173;SDS011;75;48.784;9.364;2023-06-22T13:19:40;22.20;;;8.63;;
173;SDS011;75;48.784;9.364;2023-06-22T13:22:25;13.47;;;7.90;;
173;SDS011;75;48.784;9.364;2023-06-22T13:24:52;17.03;;;8.40;;
173;SDS011;75;48.784;9.364;2023-06-22T13:27:18;15.23;;;8.20;;
173;SDS011;75;48.784;9.364;2023-06-22T13:29:44;19.30;;;8.43;;
173;SDS011;75;48.784;9.364;2023-06-22T13:32:10;20.70;;;8.43;;
173;SDS011;75;48.784;9.364;2023-06-22T13:34:36;14.13;;;8.60;;
173;SDS011;75;48.784;9.364;2023-06-22T13:37:02;22.93;;;9.30;;
173;SDS011;75;48.784;9.364;2023-06-22T13:39:28;14.53;;;7.93;;
173;SDS011;75;48.784;9.364;2023-06-22T13:41:54;16.00;;;7.80;;
173;SDS011;75;48.784;9.364;2023-06-22T13:44:20;18.00;;;8.70;;
173;SDS011;75;48.784;9.364;2023-06-22T13:46:47;17.50;;;8.30;;
173;SDS011;75;48.784;9.364;2023-06-22T13:49:13;22.60;;;8.80;;
173;SDS011;75;48.784;9.364;2023-06-22T13:51:39;14.43;;;7.33;;
173;SDS011;75;48.784;9.364;2023-06-22T13:54:05;15.20;;;7.80;;
173;SDS011;75;48.784;9.364;2023-06-22T13:56:31;17.60;;;8.13;;
173;SDS011;75;48.784;9.364;2023-06-22T13:58:58;21.00;;;7.93;;
173;SDS011;75;48.784;9.364;2023-06-22T14:01:24;20.33;;;7.70;;
173;SDS011;75;48.784;9.364;2023-06-22T14:03:50;20.87;;;8.50;;
173;SDS011;75;48.784;9.364;2023-06-22T14:06:16;17.23;;;7.73;;
173;SDS011;75;48.784;9.364;2023-06-22T14:08:42;23.93;;;7.40;;
173;SDS011;75;48.784;9.364;2023-06-22T14:11:08;14.30;;;6.10;;
173;SDS011;75;48.784;9.364;2023-06-22T14:13:34;16.30;;;7.43;;
173;SDS011;75;48.784;9.364;2023-06-22T14:16:00;17.73;;;7.67;;
173;SDS011;75;48.784;9.364;2023-06-22T14:18:26;16.90;;;8.13;;
173;SDS011;75;48.784;9.364;2023-06-22T14:20:52;17.37;;;7.20;;
173;SDS011;75;48.784;9.364;2023-06-22T14:23:18;19.57;;;7.67;;
173;SDS011;75;48.784;9.364;2023-06-22T14:25:44;17.73;;;7.50;;
173;SDS011;75;48.784;9.364;2023-06-22T14:28:10;16.07;;;7.27;;
173;SDS011;75;48.784;9.364;2023-06-22T14:30:36;16.80;;;6.97;;
173;SDS011;75;48.784;9.364;2023-06-22T14:33:02;21.77;;;7.90;;
173;SDS011;75;48.784;9.364;2023-06-22T14:35:28;14.43;;;7.13;;
173;SDS011;75;48.784;9.364;2023-06-22T14:37:54;14.03;;;7.20;;
173;SDS011;75;48.784;9.364;2023-06-22T14:40:20;23.23;;;8.40;;
173;SDS011;75;48.784;9.364;2023-06-22T14:42:45;17.87;;;7.60;;
173;SDS011;75;48.784;9.364;2023-06-22T14:45:12;14.53;;;7.83;;
173;SDS011;75;48.784;9.364;2023-06-22T14:47:38;21.37;;;7.87;;
173;SDS011;75;48.784;9.364;2023-06-22T14:50:05;14.80;;;7.53;;
173;SDS011;75;48.784;9.364;2023-06-22T14:52:31;15.83;;;7.40;;
173;SDS011;75;48.784;9.364;2023-06-22T14:54:56;26.47;;;7.57;;
173;SDS011;75;48.784;9.364;2023-06-22T14:57:22;17.10;;;7.20;;
173;SDS011;75;48.784;9.364;2023-06-22T14:59:49;12.20;;;6.13;;
173;SDS011;75;48.784;9.364;2023-06-22T15:02:15;17.90;;;7.03;;
173;SDS011;75;48.784;9.364;2023-06-22T15:04:41;22.53;;;7.03;;
173;SDS011;75;48.784;9.364;2023-06-22T15:07:06;11.37;;;6.17;;
173;SDS011;75;48.784;9.364;2023-06-22T15:09:32;14.33;;;6.07;;
173;SDS011;75;48.784;9.364;2023-06-22T15:11:58;18.60;;;6.27;;
173;SDS011;75;48.784;9.364;2023-06-22T15:14:26;10.40;;;5.47;;
173;SDS011;75;48.784;9.364;2023-06-22T15:16:52;14.47;;;5.43;;
173;SDS011;75;48.784;9.364;2023-06-22T15:19:18;12.40;;;5.20;;
173;SDS011;75;48.784;9.364;2023-06-22T15:21:44;16.97;;;5.33;;
173;SDS011;75;48.784;9.364;2023-06-22T15:24:11;20.07;;;5.27;;
173;SDS011;75;48.784;9.364;2023-06-22T15:26:37;13.23;;;4.73;;
173;SDS011;75;48.784;9.364;2023-06-22T15:29:03;15.30;;;5.27;;
173;SDS011;75;48.784;9.364;2023-06-22T15:31:29;15.83;;;5.20;;
173;SDS011;75;48.784;9.364;2023-06-22T15:33:55;14.93;;;4.70;;
173;SDS011;75;48.784;9.364;2023-06-22T15:36:21;15.77;;;5.13;;
173;SDS011;75;48.784;9.364;2023-06-22T15:38:47;19.57;;;5.90;;
173;SDS011;75;48.784;9.364;2023-06-22T15:41:13;17.60;;;4.87;;
173;SDS011;75;48.784;9.364;2023-06-22T15:43:39;11.10;;;4.97;;
173;SDS011;75;48.784;9.364;2023-06-22T15:46:05;10.40;;;4.83;;